Time;durP1;ratioP1;P1;durP2;ratioP2;P2;SDS_P1;SDS_P2;PMS_P1;PMS_P2;Temp;Humidity;BMP_temperature;BMP_pressure;BME280_temperature;BME280_humidity;BME280_pressure;Samples;Min_cycle;Max_cycle;Signal;HPM_P1;HPM_P2
2023/04/25 00:00:27;;;;;;;17.05;4.00;;;;;;;10.82;56.99;101247.94;4943321;28;20038;-82
2023/04/25 00:02:52;;;;;;;14.27;3.45;;;;;;;10.60;57.18;101251.88;4972207;28;20034;-78
2023/04/25 00:05:23;;;;;;;13.95;3.80;;;;;;;10.71;57.43;101259.91;4978452;28;20033;-79
2023/04/25 00:07:49;;;;;;;17.60;4.00;;;;;;;10.66;57.40;101256.34;4974088;28;20038;-81
2023/04/25 00:10:15;;;;;;;17.30;3.80;;;;;;;10.62;56.96;101259.72;4976727;28;20121;-83
2023/04/25 00:12:41;;;;;;;15.57;3.60;;;;;;;10.69;57.27;101256.38;4967308;28;20041;-78
2023/04/25 00:15:07;;;;;;;13.63;3.38;;;;;;;10.67;57.10;101256.38;4969823;28;20392;-81
2023/04/25 00:17:42;;;;;;;17.08;4.00;;;;;;;10.44;57.36;101257.63;4974916;28;20038;-78
2023/04/25 00:20:16;;;;;;;11.95;3.45;;;;;;;10.42;57.49;101262.84;4972145;28;20420;-79
2023/04/25 00:22:48;;;;;;;11.02;3.42;;;;;;;10.61;57.40;101261.47;4975960;28;20031;-78
2023/04/25 00:25:19;;;;;;;14.80;3.60;;;;;;;10.81;56.30;101259.22;4966843;28;20057;-79
2023/04/25 00:27:45;;;;;;;20.13;4.25;;;;;;;10.94;56.18;101255.97;4974442;28;20037;-81
2023/04/25 00:30:16;;;;;;;18.98;3.85;;;;;;;10.77;56.87;101255.69;4951901;28;20118;-78
2023/04/25 00:32:42;;;;;;;20.33;4.07;;;;;;;10.41;58.00;101265.41;4970620;28;20042;-78
2023/04/25 00:35:10;;;;;;;14.90;3.97;;;;;;;10.31;57.53;101260.81;4968284;28;20035;-78
2023/04/25 00:37:35;;;;;;;18.95;3.60;;;;;;;10.55;57.30;101257.00;4977363;28;20034;-78
2023/04/25 00:40:02;;;;;;;17.80;3.80;;;;;;;10.58;57.17;101259.66;4931822;28;20551;-81
2023/04/25 00:42:28;;;;;;;17.25;3.50;;;;;;;10.71;56.79;101257.28;4986706;28;20031;-80
2023/04/25 00:44:55;;;;;;;16.35;3.70;;;;;;;10.71;56.53;101263.41;4969413;28;20031;-81
2023/04/25 00:47:23;;;;;;;11.52;3.50;;;;;;;10.68;56.52;101263.31;4975525;28;20023;-81
2023/04/25 00:49:49;;;;;;;14.82;3.50;;;;;;;10.38;57.61;101268.81;4969346;28;20363;-81
2023/04/25 00:52:17;;;;;;;17.70;3.40;;;;;;;10.42;57.36;101267.16;4964746;28;20047;-79
2023/04/25 00:54:45;;;;;;;11.73;3.40;;;;;;;10.56;57.15;101277.00;4960761;28;20141;-81
2023/04/25 00:57:14;;;;;;;15.75;3.45;;;;;;;10.40;56.99;101276.66;4948695;28;20043;-79
2023/04/25 00:59:46;;;;;;;15.32;3.28;;;;;;;10.42;56.86;101277.59;4956185;28;20042;-81
2023/04/25 01:02:14;;;;;;;15.32;3.20;;;;;;;10.37;56.00;101281.84;4946173;28;20031;-79
2023/04/25 01:04:48;;;;;;;15.52;3.25;;;;;;;10.18;56.43;101284.91;4966929;28;20043;-78
2023/04/25 01:07:17;;;;;;;19.17;3.80;;;;;;;10.30;55.59;101288.66;4966076;28;20022;-79
2023/04/25 01:09:43;;;;;;;11.68;3.40;;;;;;;10.14;55.48;101282.19;4973772;28;20031;-79
2023/04/25 01:12:18;;;;;;;16.90;3.42;;;;;;;10.25;54.83;101279.81;4962887;28;20043;-79
2023/04/25 01:14:46;;;;;;;17.10;3.58;;;;;;;9.89;55.04;101279.88;4969652;28;20039;-80
2023/04/25 01:17:13;;;;;;;15.50;3.90;;;;;;;10.01;54.78;101280.16;4959072;28;20042;-81
2023/04/25 01:19:39;;;;;;;15.55;3.78;;;;;;;9.99;55.06;101280.97;4976187;28;20175;-81
2023/04/25 01:22:04;;;;;;;12.15;3.70;;;;;;;9.99;54.11;101279.25;4956551;28;20053;-79
2023/04/25 01:24:45;;;;;;;18.73;3.80;;;;;;;10.04;54.14;101292.38;4941365;28;20035;-79
2023/04/25 01:27:11;;;;;;;13.18;3.28;;;;;;;10.22;53.71;101291.91;4960237;28;20031;-81
2023/04/25 01:29:55;;;;;;;11.20;3.35;;;;;;;10.00;53.98;101295.75;4966403;28;20031;-79
2023/04/25 01:32:23;;;;;;;13.55;4.07;;;;;;;10.04;53.66;101295.84;4965170;28;20034;-78
2023/04/25 01:34:49;;;;;;;14.88;3.42;;;;;;;10.08;54.29;101302.00;4964656;28;20037;-78
2023/04/25 01:37:16;;;;;;;13.02;3.20;;;;;;;10.14;54.18;101296.94;4970415;28;20035;-78
2023/04/25 01:39:41;;;;;;;11.13;3.30;;;;;;;10.11;54.60;101292.56;4965967;28;20073;-78
2023/04/25 01:42:24;;;;;;;14.27;3.50;;;;;;;10.13;55.47;101298.66;4945230;28;20043;-79
2023/04/25 01:44:50;;;;;;;9.70;3.13;;;;;;;10.15;55.80;101296.97;4961951;28;20035;-78
2023/04/25 01:47:15;;;;;;;17.73;3.50;;;;;;;10.24;56.11;101296.34;4961473;28;20042;-78
2023/04/25 01:49:41;;;;;;;11.05;3.28;;;;;;;10.31;56.34;101299.91;4968189;28;20038;-80
2023/04/25 01:52:06;;;;;;;12.32;3.20;;;;;;;10.42;56.65;101301.94;4950615;28;20085;-78
2023/04/25 01:54:32;;;;;;;12.75;3.38;;;;;;;10.48;56.51;101298.56;4963291;28;20088;-80
2023/04/25 01:57:01;;;;;;;13.80;3.40;;;;;;;10.55;56.15;101303.06;4961479;28;20122;-78
2023/04/25 01:59:26;;;;;;;11.93;3.28;;;;;;;10.65;56.40;101305.00;4968514;28;20035;-79
2023/04/25 02:04:22;;;;;;;14.93;3.85;;;;;;;10.78;55.79;101304.38;4962543;28;20030;-44
2023/04/25 02:06:47;;;;;;;15.43;3.35;;;;;;;10.81;56.04;101304.44;4962118;28;20039;-44
2023/04/25 02:09:13;;;;;;;12.02;3.13;;;;;;;10.69;56.54;101298.97;4964190;28;20038;-48
2023/04/25 02:11:38;;;;;;;11.38;3.03;;;;;;;10.65;57.21;101309.31;4972467;28;20533;-44
2023/04/25 02:14:03;;;;;;;16.67;3.30;;;;;;;10.76;56.79;101305.19;4968134;28;20033;-46
2023/04/25 02:16:30;;;;;;;14.38;3.22;;;;;;;10.55;58.17;101300.47;4966320;28;20041;-45
2023/04/25 02:18:55;;;;;;;13.60;3.22;;;;;;;10.87;57.76;101304.56;4962539;28;20041;-44
2023/04/25 02:21:20;;;;;;;11.40;3.00;;;;;;;10.92;57.38;101308.13;4966735;28;20042;-44
2023/04/25 02:23:48;;;;;;;14.93;3.60;;;;;;;10.90;57.72;101303.75;4963060;28;20035;-44
2023/04/25 02:26:14;;;;;;;9.70;3.03;;;;;;;10.86;57.76;101308.00;4965527;28;20141;-44
2023/04/25 02:28:39;;;;;;;8.50;3.10;;;;;;;10.92;57.92;101308.13;4965004;28;20066;-42
2023/04/25 02:31:05;;;;;;;14.40;3.30;;;;;;;10.85;58.21;101310.59;4962236;28;20042;-44
2023/04/25 02:33:30;;;;;;;10.52;2.92;;;;;;;10.56;57.95;101310.00;4965077;28;20429;-43
2023/04/25 02:35:55;;;;;;;12.85;2.80;;;;;;;10.85;56.78;101315.81;4966663;28;20027;-43
2023/04/25 02:38:21;;;;;;;8.93;2.53;;;;;;;10.81;56.48;101308.78;4970120;28;20038;-43
2023/04/25 02:40:46;;;;;;;13.95;2.83;;;;;;;10.78;55.48;101313.94;4964438;28;20089;-46
2023/04/25 02:43:11;;;;;;;13.27;2.50;;;;;;;10.94;54.89;101318.59;4969969;28;20081;-43
2023/04/25 02:45:37;;;;;;;10.35;2.30;;;;;;;10.72;55.07;101319.03;4970782;28;20455;-43
2023/04/25 02:48:03;;;;;;;10.45;2.20;;;;;;;10.27;56.22;101319.84;4966108;28;20031;-45
2023/04/25 02:50:28;;;;;;;12.55;2.40;;;;;;;10.97;53.73;101316.06;4965932;28;20034;-45
2023/04/25 02:52:54;;;;;;;9.15;2.20;;;;;;;11.04;54.30;101317.91;4962805;28;20091;-42
2023/04/25 02:55:20;;;;;;;9.43;2.05;;;;;;;11.21;53.17;101313.00;4966362;28;20509;-53
2023/04/25 02:57:45;;;;;;;8.40;2.40;;;;;;;11.07;53.71;101302.31;4962779;28;20045;-57
2023/04/25 03:00:11;;;;;;;10.85;2.25;;;;;;;11.09;53.08;101303.25;4967397;28;20074;-43
2023/04/25 03:02:37;;;;;;;8.43;2.30;;;;;;;10.88;53.86;101306.31;4965782;28;20294;-45
2023/04/25 03:05:03;;;;;;;9.02;2.00;;;;;;;10.99;53.30;101307.38;4962452;28;20042;-44
2023/04/25 03:07:28;;;;;;;13.38;2.30;;;;;;;11.11;53.64;101303.25;4964782;28;20027;-42
2023/04/25 03:09:53;;;;;;;7.75;2.00;;;;;;;10.94;53.84;101313.38;4961426;28;20085;-43
2023/04/25 03:12:19;;;;;;;12.32;2.28;;;;;;;10.81;54.44;101307.03;4963520;28;20193;-43
2023/04/25 03:14:44;;;;;;;12.35;2.05;;;;;;;10.97;54.20;101313.44;4966090;28;20062;-45
2023/04/25 03:17:10;;;;;;;11.68;2.13;;;;;;;11.06;53.98;101323.16;4962825;28;20045;-45
2023/04/25 03:19:35;;;;;;;17.85;2.53;;;;;;;10.96;54.31;101328.22;4966144;28;20039;-44
2023/04/25 03:22:00;;;;;;;10.10;2.10;;;;;;;11.15;54.23;101324.22;4967512;28;20413;-44
2023/04/25 03:24:27;;;;;;;12.88;2.30;;;;;;;11.46;53.22;101320.41;4969844;28;20031;-45
2023/04/25 03:26:52;;;;;;;7.82;2.25;;;;;;;11.59;52.96;101322.34;4966377;28;20474;-46
2023/04/25 03:29:17;;;;;;;11.50;2.55;;;;;;;11.09;54.71;101321.50;4969737;28;20086;-44
2023/04/25 03:31:43;;;;;;;13.80;2.45;;;;;;;11.44;54.90;101323.84;4969511;28;20035;-43
2023/04/25 03:34:08;;;;;;;9.93;2.20;;;;;;;11.60;54.47;101325.84;4967627;28;20489;-45
2023/04/25 03:36:33;;;;;;;13.00;2.20;;;;;;;11.38;55.42;101325.50;4972963;28;20095;-44
2023/04/25 03:38:59;;;;;;;9.63;1.90;;;;;;;11.24;56.32;101326.97;4970877;28;20481;-44
2023/04/25 03:41:24;;;;;;;10.20;2.20;;;;;;;11.31;56.34;101334.06;4969800;28;20034;-45
2023/04/25 03:43:50;;;;;;;13.65;2.97;;;;;;;11.38;56.31;101335.06;4964848;28;20173;-49
2023/04/25 03:46:15;;;;;;;15.60;3.33;;;;;;;11.12;56.23;101333.69;4968415;28;20177;-46
2023/04/25 03:48:40;;;;;;;13.00;2.35;;;;;;;11.12;55.42;101331.09;4968046;28;20260;-43
2023/04/25 03:51:06;;;;;;;7.68;1.90;;;;;;;11.31;54.60;101327.97;4964708;28;20053;-45
2023/04/25 03:53:31;;;;;;;14.75;2.30;;;;;;;10.97;53.08;101329.09;4967961;28;20102;-43
2023/04/25 03:55:56;;;;;;;11.90;1.92;;;;;;;11.29;52.40;101334.88;4966054;28;20070;-43
2023/04/25 03:58:23;;;;;;;11.07;2.25;;;;;;;11.25;52.49;101333.09;4969974;28;20035;-44
2023/04/25 04:00:48;;;;;;;11.70;1.75;;;;;;;11.36;52.14;101337.63;4964987;28;20038;-45
2023/04/25 04:03:14;;;;;;;12.77;2.38;;;;;;;11.19;52.57;101346.91;4967665;28;20516;-45
2023/04/25 04:05:40;;;;;;;11.32;2.20;;;;;;;11.29;51.92;101353.16;4967463;28;20469;-43
2023/04/25 04:08:06;;;;;;;9.93;2.33;;;;;;;11.50;51.75;101348.31;4964184;28;20046;-44
2023/04/25 04:10:31;;;;;;;14.75;2.20;;;;;;;11.28;52.11;101346.19;4968379;28;20038;-44
2023/04/25 04:12:56;;;;;;;19.33;2.45;;;;;;;11.06;53.32;101350.13;4964801;28;20422;-44
2023/04/25 04:15:22;;;;;;;9.07;2.35;;;;;;;11.05;52.93;101345.75;4968064;28;20023;-45
2023/04/25 04:17:48;;;;;;;8.23;2.20;;;;;;;11.04;52.70;101346.59;4968243;28;20126;-46
2023/04/25 04:20:13;;;;;;;11.75;2.20;;;;;;;11.08;52.69;101358.88;4969121;28;20042;-44
2023/04/25 04:22:39;;;;;;;6.80;2.05;;;;;;;10.94;52.36;101360.34;4967269;28;20070;-46
2023/04/25 04:25:05;;;;;;;7.15;2.10;;;;;;;11.04;52.41;101361.41;4963726;28;24781;-45
2023/04/25 04:27:31;;;;;;;9.32;1.88;;;;;;;11.09;51.81;101365.84;4967723;28;20437;-43
2023/04/25 04:29:57;;;;;;;11.32;2.30;;;;;;;10.96;52.58;101356.03;4964806;28;20201;-45
2023/04/25 04:32:23;;;;;;;7.65;2.00;;;;;;;11.00;52.50;101363.06;4966027;28;20062;-42
2023/04/25 04:34:48;;;;;;;14.75;2.53;;;;;;;10.92;52.89;101364.63;4965956;28;20031;-43
2023/04/25 04:37:14;;;;;;;9.80;2.22;;;;;;;10.93;52.77;101369.00;4969098;28;20192;-44
2023/04/25 04:39:40;;;;;;;6.72;2.00;;;;;;;10.75;53.99;101369.50;4968747;28;20070;-44
2023/04/25 04:42:05;;;;;;;8.93;2.20;;;;;;;10.76;54.46;101375.59;4965595;28;20039;-43
2023/04/25 04:44:35;;;;;;;11.30;2.50;;;;;;;10.74;54.72;101374.69;4967642;28;20038;-44
2023/04/25 04:47:01;;;;;;;11.88;2.40;;;;;;;11.08;54.38;101377.13;4964574;28;20031;-42
2023/04/25 04:49:27;;;;;;;9.48;2.35;;;;;;;11.09;54.78;101376.28;4971996;28;20037;-46
2023/04/25 04:51:54;;;;;;;9.35;2.40;;;;;;;11.01;54.82;101385.69;4969667;28;20039;-43
2023/04/25 04:54:19;;;;;;;9.25;2.28;;;;;;;11.06;54.98;101393.59;4974045;28;20041;-47
2023/04/25 04:56:45;;;;;;;8.80;2.30;;;;;;;10.85;55.20;101387.13;4968243;28;20035;-43
2023/04/25 04:59:10;;;;;;;8.70;2.00;;;;;;;10.83;55.65;101390.53;4964856;28;20035;-43
2023/04/25 05:01:36;;;;;;;9.55;2.10;;;;;;;11.09;55.03;101398.91;4966652;28;20122;-45
2023/04/25 05:04:02;;;;;;;10.73;2.38;;;;;;;11.14;54.83;101394.66;4963755;28;20039;-46
2023/04/25 05:06:31;;;;;;;12.25;2.60;;;;;;;10.82;55.64;101400.09;4965843;28;20035;-44
2023/04/25 05:08:56;;;;;;;11.02;3.95;;;;;;;11.12;55.41;101398.94;4963712;28;20081;-45
2023/04/25 05:11:23;;;;;;;14.20;4.95;;;;;;;11.08;55.18;101415.41;4964596;28;20034;-45
2023/04/25 05:13:49;;;;;;;9.77;3.97;;;;;;;11.20;55.09;101413.91;4962764;28;20062;-43
2023/04/25 05:16:15;;;;;;;9.70;2.75;;;;;;;11.11;54.49;101420.66;4965664;28;20494;-45
2023/04/25 05:18:40;;;;;;;9.48;2.90;;;;;;;10.79;56.21;101433.06;4965563;28;20181;-44
2023/04/25 05:21:05;;;;;;;7.25;2.38;;;;;;;10.35;56.08;101445.09;4962874;28;20050;-45
2023/04/25 05:23:32;;;;;;;10.05;1.90;;;;;;;10.66;55.22;101436.25;4965731;28;20124;-44
2023/04/25 05:25:58;;;;;;;10.10;2.00;;;;;;;10.99;54.34;101432.63;4962437;28;20544;-44
2023/04/25 05:28:23;;;;;;;5.60;1.50;;;;;;;10.78;54.60;101446.94;4965456;28;20031;-42
2023/04/25 05:30:49;;;;;;;8.90;1.83;;;;;;;10.71;54.02;101445.94;4961491;28;20031;-46
2023/04/25 05:33:15;;;;;;;8.23;1.70;;;;;;;10.76;53.65;101453.84;4965583;28;20054;-47
2023/04/25 05:35:40;;;;;;;7.38;1.60;;;;;;;11.09;52.87;101454.56;4966952;28;20433;-44
2023/04/25 05:38:06;;;;;;;8.73;1.80;;;;;;;11.28;51.95;101455.81;4964619;28;20409;-44
2023/04/25 05:40:31;;;;;;;5.68;1.50;;;;;;;11.33;51.21;101462.00;4966416;28;20122;-44
2023/04/25 05:42:57;;;;;;;5.68;1.73;;;;;;;11.02;51.91;101468.34;4964142;28;20035;-42
2023/04/25 05:45:22;;;;;;;8.70;1.80;;;;;;;11.45;50.45;101475.31;4968417;28;20490;-45
2023/04/25 05:47:48;;;;;;;5.80;1.58;;;;;;;10.23;52.88;101487.41;4963231;28;20034;-45
2023/04/25 05:50:13;;;;;;;5.28;1.50;;;;;;;10.14;53.56;101492.34;4966523;28;20039;-45
2023/04/25 05:52:38;;;;;;;6.40;1.60;;;;;;;10.16;54.92;101490.66;4968064;28;20066;-46
2023/04/25 05:55:04;;;;;;;5.15;1.58;;;;;;;10.00;56.98;101507.59;4970046;28;20039;-44
2023/04/25 05:57:30;;;;;;;8.82;1.50;;;;;;;10.01;58.28;101511.09;4969296;28;20030;-43
2023/04/25 05:59:55;;;;;;;6.65;1.67;;;;;;;9.62;60.15;101498.81;4963549;28;20039;-46
2023/04/25 06:02:21;;;;;;;3.50;1.40;;;;;;;9.80;61.23;101502.75;4967136;28;20134;-51
2023/04/25 06:04:47;;;;;;;5.25;1.70;;;;;;;9.62;62.15;101497.91;4963073;28;20054;-47
2023/04/25 06:07:13;;;;;;;5.07;1.40;;;;;;;9.94;61.36;101509.19;4966315;28;20031;-44
2023/04/25 06:09:39;;;;;;;6.18;1.70;;;;;;;9.91;62.73;101506.50;4969160;28;20035;-44
2023/04/25 06:12:05;;;;;;;5.25;1.50;;;;;;;10.26;61.60;101500.47;4965434;28;20041;-47
2023/04/25 06:14:30;;;;;;;5.55;1.38;;;;;;;10.37;61.25;101505.97;4970294;28;20038;-49
2023/04/25 06:16:56;;;;;;;6.43;1.50;;;;;;;10.54;62.37;101502.94;4966396;28;20035;-44
2023/04/25 06:19:21;;;;;;;3.55;1.13;;;;;;;10.85;61.94;101501.91;4971378;28;20041;-45
2023/04/25 06:21:46;;;;;;;5.88;1.42;;;;;;;10.91;61.05;101501.16;4971368;28;20053;-49
2023/04/25 06:24:12;;;;;;;4.00;1.48;;;;;;;11.04;61.56;101503.16;4977564;28;20034;-44
2023/04/25 06:26:37;;;;;;;4.10;1.40;;;;;;;10.89;60.85;101510.66;4970042;28;20035;-46
2023/04/25 06:29:02;;;;;;;5.20;1.63;;;;;;;11.09;60.60;101511.97;4964680;28;20035;-43
2023/04/25 06:31:28;;;;;;;4.13;1.65;;;;;;;11.28;61.30;101518.47;4974229;28;20054;-44
2023/04/25 06:33:54;;;;;;;4.72;1.33;;;;;;;11.61;60.40;101511.28;4970798;28;20035;-44
2023/04/25 06:36:24;;;;;;;3.88;1.40;;;;;;;11.19;59.35;101521.75;4973187;28;20041;-46
2023/04/25 06:38:50;;;;;;;4.47;1.48;;;;;;;11.37;59.08;101524.75;4968423;28;20146;-46
2023/04/25 06:41:16;;;;;;;4.05;1.30;;;;;;;11.61;58.49;101523.47;4971125;28;20062;-43
2023/04/25 06:43:41;;;;;;;4.80;1.63;;;;;;;11.04;58.17;101528.38;4968596;28;20054;-43
2023/04/25 06:46:06;;;;;;;4.15;1.50;;;;;;;11.25;59.66;101526.22;4965290;28;20035;-44
2023/04/25 06:48:31;;;;;;;6.28;1.90;;;;;;;10.95;60.88;101529.94;4967625;28;20066;-42
2023/04/25 06:50:57;;;;;;;3.97;1.60;;;;;;;11.35;59.59;101529.06;4961506;28;20102;-44
2023/04/25 06:53:22;;;;;;;6.07;1.70;;;;;;;11.17;60.28;101531.28;4964145;28;20122;-48
2023/04/25 06:55:48;;;;;;;6.35;1.80;;;;;;;11.37;58.31;101537.81;4961538;28;20065;-45
2023/04/25 06:58:13;;;;;;;6.10;1.70;;;;;;;11.88;57.68;101541.44;4964415;28;20382;-43
2023/04/25 07:00:38;;;;;;;7.50;1.63;;;;;;;12.00;57.12;101536.44;4962216;28;20547;-42
2023/04/25 07:03:03;;;;;;;6.28;1.60;;;;;;;12.41;55.49;101532.81;4961147;28;20049;-42
2023/04/25 07:05:29;;;;;;;5.15;1.40;;;;;;;13.88;51.78;101531.31;4964842;28;20030;-49
2023/04/25 07:07:54;;;;;;;5.20;1.50;;;;;;;15.54;46.98;101522.03;4960910;28;20085;-46
2023/04/25 07:10:21;;;;;;;5.95;1.40;;;;;;;16.41;43.44;101528.28;4965494;28;20082;-45
2023/04/25 07:12:46;;;;;;;6.40;1.50;;;;;;;17.42;41.42;101524.59;4961235;28;20037;-44
2023/04/25 07:15:11;;;;;;;6.10;1.30;;;;;;;18.57;38.20;101530.94;4962164;28;20396;-46
2023/04/25 07:17:37;;;;;;;5.95;1.40;;;;;;;16.48;41.05;101530.94;4964052;28;20089;-44
2023/04/25 07:20:03;;;;;;;5.50;1.08;;;;;;;16.53;40.49;101531.78;4960226;28;20074;-46
2023/04/25 07:22:29;;;;;;;7.20;1.60;;;;;;;15.22;42.80;101540.25;4966807;28;20038;-44
2023/04/25 07:24:55;;;;;;;8.25;1.33;;;;;;;13.71;45.70;101538.13;4963390;28;20031;-44
2023/04/25 07:27:20;;;;;;;9.02;1.80;;;;;;;13.35;47.92;101546.44;4965386;28;20378;-46
2023/04/25 07:29:46;;;;;;;7.82;1.67;;;;;;;13.13;48.05;101549.59;4961260;28;20038;-59
2023/04/25 07:32:13;;;;;;;6.93;1.60;;;;;;;13.07;48.43;101560.84;4965683;28;20437;-45
2023/04/25 07:34:38;;;;;;;9.40;1.40;;;;;;;13.32;48.02;101551.63;4966373;28;20081;-48
2023/04/25 07:37:04;;;;;;;9.13;1.40;;;;;;;14.62;45.49;101554.75;4963672;28;20034;-44
2023/04/25 07:39:30;;;;;;;5.55;1.10;;;;;;;15.35;41.72;101549.94;4966440;28;20030;-43
2023/04/25 07:41:55;;;;;;;4.97;1.23;;;;;;;15.57;38.82;101557.06;4961477;28;20444;-46
2023/04/25 07:44:21;;;;;;;4.30;1.10;;;;;;;15.53;37.49;101557.06;4964458;28;20581;-55
2023/04/25 07:46:46;;;;;;;5.60;1.08;;;;;;;15.25;39.31;101556.88;4962575;28;20231;-50
2023/04/25 07:49:12;;;;;;;5.32;1.15;;;;;;;14.43;40.57;101564.22;4964529;28;20050;-43
2023/04/25 07:51:37;;;;;;;6.15;1.00;;;;;;;14.30;42.52;101561.44;4963631;28;20043;-46
2023/04/25 07:54:03;;;;;;;8.88;1.30;;;;;;;14.57;41.32;101566.97;4961270;28;20026;-43
2023/04/25 07:56:28;;;;;;;7.68;1.27;;;;;;;15.22;36.89;101561.25;4963781;28;20039;-44
2023/04/25 07:58:53;;;;;;;7.90;1.45;;;;;;;16.10;35.71;101561.63;4960413;28;20042;-48
2023/04/25 08:01:21;;;;;;;10.93;2.30;;;;;;;14.85;39.67;101575.91;4957626;28;20053;-45
2023/04/25 08:03:46;;;;;;;7.28;1.40;;;;;;;13.76;42.23;101580.97;4958897;28;20042;-53
2023/04/25 08:06:12;;;;;;;6.00;1.35;;;;;;;13.68;43.11;101590.47;4964286;28;20038;-43
2023/04/25 08:08:37;;;;;;;6.10;1.40;;;;;;;12.98;43.00;101598.25;4966143;28;20039;-47
2023/04/25 08:11:02;;;;;;;5.75;1.20;;;;;;;12.94;44.22;101600.78;4961482;28;20689;-46
2023/04/25 08:13:28;;;;;;;7.30;1.50;;;;;;;13.34;42.11;101611.03;4967313;28;20522;-48
2023/04/25 08:15:54;;;;;;;8.30;1.40;;;;;;;13.25;43.58;101605.63;4963673;28;20396;-43
2023/04/25 08:18:19;;;;;;;8.43;1.30;;;;;;;13.20;44.14;101607.31;4996236;23;20049;-37
2023/04/25 08:20:45;;;;;;;8.73;1.30;;;;;;;12.57;44.25;101620.22;4973139;28;20091;-39
2023/04/25 08:23:10;;;;;;;7.32;1.25;;;;;;;13.86;43.06;101610.78;4966729;28;20042;-39
2023/04/25 08:25:36;;;;;;;7.93;1.30;;;;;;;14.05;43.27;101616.25;4969488;28;20457;-38
2023/04/25 08:28:02;;;;;;;8.18;1.13;;;;;;;13.72;45.46;101624.59;4954617;28;20095;-38
2023/04/25 08:30:28;;;;;;;6.53;1.42;;;;;;;13.13;46.78;101646.47;4950929;28;20027;-39
2023/04/25 08:32:53;;;;;;;7.75;1.20;;;;;;;12.97;46.52;101637.47;4947668;28;20418;-39
2023/04/25 08:35:20;;;;;;;7.28;1.27;;;;;;;12.76;48.59;101643.22;4950964;28;20035;-38
2023/04/25 08:37:45;;;;;;;11.43;1.40;;;;;;;12.93;47.80;101648.72;4946879;28;20042;-38
2023/04/25 08:40:15;;;;;;;8.65;2.00;;;;;;;13.13;47.34;101639.50;4948731;28;20047;-39
2023/04/25 08:42:42;;;;;;;10.32;1.50;;;;;;;12.89;46.50;101650.44;4950350;28;20043;-38
2023/04/25 08:45:08;;;;;;;7.57;1.35;;;;;;;12.82;46.74;101653.81;4947933;28;20058;-38
2023/04/25 08:47:34;;;;;;;7.50;1.50;;;;;;;13.47;46.55;101653.97;4950360;28;20031;-38
2023/04/25 08:50:01;;;;;;;8.60;1.67;;;;;;;13.34;45.71;101658.16;4945244;28;20080;-39
2023/04/25 08:52:30;;;;;;;6.28;1.58;;;;;;;13.51;44.37;101662.75;4946342;28;20035;-39
2023/04/25 08:54:57;;;;;;;9.13;1.30;;;;;;;13.76;43.13;101670.09;4942154;28;20046;-39
2023/04/25 08:57:23;;;;;;;5.90;1.20;;;;;;;13.71;43.16;101664.78;4946468;28;20032;-36
2023/04/25 08:59:49;;;;;;;8.65;1.52;;;;;;;14.34;42.44;101674.25;4942294;28;20520;-39
2023/04/25 09:02:16;;;;;;;4.32;1.02;;;;;;;14.56;41.83;101664.91;4946857;28;20047;-39
2023/04/25 09:04:43;;;;;;;5.90;1.20;;;;;;;14.01;40.89;101674.78;4946259;28;20039;-40
2023/04/25 09:07:08;;;;;;;7.10;1.20;;;;;;;13.92;40.24;101693.00;4941738;28;20131;-41
2023/04/25 09:09:34;;;;;;;5.82;1.20;;;;;;;13.84;40.74;101692.03;4946254;28;20035;-41
2023/04/25 09:12:01;;;;;;;6.38;1.20;;;;;;;14.13;41.08;101690.66;4942732;28;20178;-36
2023/04/25 09:14:27;;;;;;;6.60;1.38;;;;;;;13.72;41.31;101692.72;4945298;28;20035;-39
2023/04/25 09:16:55;;;;;;;8.38;1.60;;;;;;;14.23;41.95;101699.50;4939539;28;20035;-39
2023/04/25 09:19:29;;;;;;;6.15;1.30;;;;;;;13.85;42.40;101695.50;4944274;28;20039;-38
2023/04/25 09:21:57;;;;;;;6.13;1.05;;;;;;;14.18;43.18;101702.06;4942639;28;20038;-39
2023/04/25 09:24:37;;;;;;;6.47;1.20;;;;;;;13.20;42.38;101703.31;4946171;28;20047;-39
2023/04/25 09:27:04;;;;;;;5.93;1.05;;;;;;;13.25;42.47;101713.00;4941535;28;20027;-39
2023/04/25 09:29:36;;;;;;;7.28;1.35;;;;;;;13.85;41.74;101709.50;4945186;28;20070;-40
2023/04/25 09:32:15;;;;;;;9.00;1.40;;;;;;;13.58;41.57;101711.75;4942009;28;20043;-38
2023/04/25 09:34:48;;;;;;;6.40;1.08;;;;;;;13.80;42.16;101705.94;4944745;28;20126;-39
2023/04/25 09:37:18;;;;;;;8.07;1.60;;;;;;;14.32;44.36;101715.34;4941279;28;20042;-37
2023/04/25 09:39:46;;;;;;;6.15;1.27;;;;;;;14.52;42.30;101721.72;4945911;28;20035;-39
2023/04/25 09:42:12;;;;;;;8.70;1.20;;;;;;;14.71;42.34;101712.28;4942607;28;20478;-39
2023/04/25 09:44:42;;;;;;;8.18;1.35;;;;;;;14.97;44.67;101720.41;4944457;28;20065;-38
2023/04/25 09:47:11;;;;;;;9.35;1.33;;;;;;;14.69;43.34;101723.66;4941495;28;20490;-39
2023/04/25 09:49:40;;;;;;;7.05;1.42;;;;;;;14.47;44.72;101736.53;4945202;28;20118;-39
2023/04/25 09:52:05;;;;;;;8.82;1.52;;;;;;;14.05;48.67;101735.97;4945528;28;20097;-37
2023/04/25 09:54:31;;;;;;;7.53;1.40;;;;;;;13.28;51.46;101741.00;4948198;28;20118;-48
2023/04/25 09:56:59;;;;;;;6.57;1.30;;;;;;;12.42;52.16;101740.28;4941401;28;20071;-39
2023/04/25 09:59:24;;;;;;;10.23;1.63;;;;;;;12.76;51.56;101747.00;4944455;28;20035;-38
2023/04/25 10:01:50;;;;;;;7.55;1.40;;;;;;;13.16;50.32;101746.03;4941916;28;20152;-39
2023/04/25 10:04:20;;;;;;;8.13;1.60;;;;;;;13.47;51.16;101739.53;4943900;28;20046;-41
2023/04/25 10:06:49;;;;;;;7.75;1.65;;;;;;;13.13;50.40;101748.56;4940845;28;20105;-45
2023/04/25 10:09:15;;;;;;;9.70;1.75;;;;;;;12.87;49.55;101754.19;4944138;28;20031;-37
2023/04/25 10:11:41;;;;;;;8.45;1.55;;;;;;;12.76;50.91;101758.34;4944513;28;20050;-39
2023/04/25 10:14:06;;;;;;;5.88;1.10;;;;;;;13.01;44.31;101754.44;4940982;28;20035;-39
2023/04/25 10:16:32;;;;;;;10.52;1.58;;;;;;;12.67;47.20;101762.56;4943534;28;20070;-39
2023/04/25 10:18:57;;;;;;;4.82;1.35;;;;;;;12.72;48.01;101756.56;4940531;28;20035;-40
2023/04/25 10:21:26;;;;;;;7.78;1.70;;;;;;;12.71;48.65;101759.13;4944088;28;20055;-39
2023/04/25 10:23:52;;;;;;;9.13;1.50;;;;;;;12.92;46.48;101754.31;4941028;28;20035;-45
2023/04/25 10:26:18;;;;;;;5.55;1.20;;;;;;;13.30;45.63;101761.09;4945143;28;20532;-41
2023/04/25 10:29:01;;;;;;;9.55;1.45;;;;;;;13.37;43.59;101765.56;4943472;28;20042;-41
2023/04/25 10:31:28;;;;;;;6.40;1.30;;;;;;;13.19;40.95;101757.41;4942428;28;20043;-39
2023/04/25 10:33:54;;;;;;;5.80;1.30;;;;;;;13.64;41.54;101761.63;4941943;28;20093;-40
2023/04/25 10:36:22;;;;;;;5.90;1.20;;;;;;;13.51;40.84;101763.19;4946497;28;20027;-39
2023/04/25 10:38:50;;;;;;;5.45;1.05;;;;;;;13.48;40.32;101767.50;4943328;28;20035;-39
2023/04/25 10:41:21;;;;;;;7.07;1.30;;;;;;;13.37;41.78;101773.44;4943732;28;20563;-38
2023/04/25 10:43:47;;;;;;;4.10;1.05;;;;;;;12.80;43.59;101785.50;4943625;28;20039;-37
2023/04/25 10:46:25;;;;;;;4.38;1.02;;;;;;;13.38;40.63;101771.69;4946285;28;20090;-39
2023/04/25 10:48:56;;;;;;;6.18;1.05;;;;;;;13.08;41.89;101766.78;4943021;28;20062;-38
2023/04/25 10:51:30;;;;;;;6.97;1.25;;;;;;;12.93;41.79;101772.63;4950115;28;20114;-38
2023/04/25 10:53:55;;;;;;;5.73;1.20;;;;;;;12.73;40.22;101766.16;4946901;28;20638;-39
2023/04/25 10:56:22;;;;;;;9.73;1.55;;;;;;;13.34;41.39;101762.03;4950993;28;20060;-39
2023/04/25 10:58:48;;;;;;;4.88;1.30;;;;;;;13.32;43.19;101767.25;4946389;28;20077;-39
2023/04/25 11:01:15;;;;;;;7.72;1.42;;;;;;;13.28;42.77;101775.03;4944721;28;20031;-38
2023/04/25 11:03:45;;;;;;;6.28;1.40;;;;;;;13.54;43.46;101771.06;4946330;28;20070;-36
2023/04/25 11:06:28;;;;;;;6.57;1.05;;;;;;;13.28;42.59;101786.38;4941909;28;20537;-39
2023/04/25 11:08:53;;;;;;;7.70;1.20;;;;;;;13.61;39.36;101777.28;4940913;28;20039;-41
2023/04/25 11:11:19;;;;;;;8.85;1.63;;;;;;;13.73;39.62;101780.09;4942551;28;20512;-39
2023/04/25 11:13:48;;;;;;;7.60;1.40;;;;;;;13.70;40.70;101780.94;4943817;28;20525;-37
2023/04/25 11:16:13;;;;;;;6.53;1.00;;;;;;;13.23;41.57;101787.16;4939426;28;20038;-39
2023/04/25 11:18:43;;;;;;;5.75;1.30;;;;;;;13.79;41.71;101775.81;4943773;28;20039;-38
2023/04/25 11:21:08;;;;;;;5.35;1.20;;;;;;;13.74;38.58;101776.63;4941037;28;20043;-36